Time;durP1;ratioP1;P1;durP2;ratioP2;P2;SDS_P1;SDS_P2;PMS_P1;PMS_P2;Temp;Humidity;BMP_temperature;BMP_pressure;BME280_temperature;BME280_humidity;BME280_pressure;Samples;Min_cycle;Max_cycle;Signal;HPM_P1;HPM_P2
2022/12/30 00:01:10;;;;;;;2.75;1.73;;;10.20;78.70;;;;;;5076406;28;20547;-83
2022/12/30 00:03:36;;;;;;;3.40;1.58;;;10.20;78.70;;;;;;5059014;28;20025;-83
2022/12/30 00:06:04;;;;;;;2.70;1.50;;;10.10;78.60;;;;;;5059131;28;20067;-83
2022/12/30 00:08:48;;;;;;;2.00;1.50;;;10.10;78.70;;;;;;5076905;28;20105;-83
2022/12/30 00:11:24;;;;;;;2.58;1.50;;;10.10;78.70;;;;;;5059950;28;20033;-83
2022/12/30 00:34:33;;;;;;;2.03;1.42;;;10.00;78.70;;;;;;5059346;28;20067;-83
2022/12/30 00:36:59;;;;;;;2.17;1.60;;;10.00;78.70;;;;;;5042858;28;20028;-82
2022/12/30 00:39:25;;;;;;;3.60;1.80;;;9.90;78.70;;;;;;5058890;28;20032;-83
2022/12/30 00:44:35;;;;;;;2.72;1.77;;;9.90;78.70;;;;;;5059502;28;20032;-83
2022/12/30 00:47:02;;;;;;;2.65;1.65;;;9.90;78.70;;;;;;5042001;28;20565;-81
2022/12/30 00:57:41;;;;;;;1.70;1.33;;;9.90;78.80;;;;;;5061556;28;20041;-83
2022/12/30 01:00:12;;;;;;;2.55;1.50;;;9.90;78.80;;;;;;5057889;28;20033;-82
2022/12/30 01:02:38;;;;;;;1.63;1.42;;;9.80;78.70;;;;;;5075586;28;20027;-83
2022/12/30 01:05:05;;;;;;;1.27;1.17;;;9.80;78.80;;;;;;5041209;28;20024;-83
2022/12/30 01:07:30;;;;;;;3.28;1.67;;;9.80;78.80;;;;;;5058159;28;20089;-83
2022/12/30 01:09:57;;;;;;;1.45;1.35;;;9.80;78.80;;;;;;5058972;28;20115;-83
2022/12/30 01:12:23;;;;;;;4.25;1.70;;;9.80;78.80;;;;;;5074988;28;20540;-83
2022/12/30 01:14:51;;;;;;;2.70;1.60;;;9.80;78.70;;;;;;5075358;28;20102;-83
2022/12/30 01:17:21;;;;;;;2.55;1.60;;;9.80;78.80;;;;;;5057684;28;20058;-83
2022/12/30 01:19:47;;;;;;;2.80;1.45;;;9.80;78.80;;;;;;5058118;28;20119;-82
2022/12/30 01:22:13;;;;;;;3.42;1.70;;;9.70;78.70;;;;;;5057962;28;20090;-83
2022/12/30 01:24:39;;;;;;;1.70;1.30;;;9.70;78.70;;;;;;5057998;28;20024;-83
2022/12/30 01:27:05;;;;;;;2.28;1.45;;;9.70;78.80;;;;;;5075033;28;20043;-83
2022/12/30 01:29:36;;;;;;;1.65;1.40;;;9.70;78.80;;;;;;5075685;28;20029;-83
2022/12/30 01:32:17;;;;;;;2.00;1.40;;;9.70;78.80;;;;;;5058075;28;20032;-84
2022/12/30 01:34:43;;;;;;;2.97;1.70;;;9.70;78.80;;;;;;5041424;28;20036;-84
2022/12/30 01:37:10;;;;;;;1.90;1.45;;;9.60;78.70;;;;;;5074024;28;20032;-84
2022/12/30 01:39:35;;;;;;;1.58;1.48;;;9.60;78.80;;;;;;5057620;28;20048;-83
2022/12/30 01:42:02;;;;;;;2.97;1.60;;;9.60;78.80;;;;;;5074623;28;20052;-83
2022/12/30 01:44:46;;;;;;;2.55;1.60;;;9.60;78.80;;;;;;5074278;28;20129;-82
2022/12/30 01:47:24;;;;;;;1.63;1.40;;;9.60;78.80;;;;;;5058317;28;20437;-83
2022/12/30 01:49:53;;;;;;;2.90;1.75;;;9.60;78.70;;;;;;5057570;28;20028;-83
2022/12/30 01:52:23;;;;;;;2.55;1.60;;;9.60;78.70;;;;;;5040922;28;20036;-83
2022/12/30 01:54:51;;;;;;;2.15;1.30;;;9.60;79.40;;;;;;5073556;28;20028;-83
2022/12/30 01:57:19;;;;;;;3.80;1.98;;;9.60;78.80;;;;;;5057274;28;20036;-83
2022/12/30 01:59:46;;;;;;;1.70;1.40;;;9.50;78.70;;;;;;5073928;28;20476;-83
2022/12/30 02:02:12;;;;;;;2.30;1.60;;;9.50;78.80;;;;;;5074391;28;20036;-83
2022/12/30 02:04:38;;;;;;;1.88;1.35;;;9.50;78.80;;;;;;5074088;28;20381;-83
2022/12/30 02:07:09;;;;;;;1.85;1.42;;;9.50;78.80;;;;;;5057838;28;20044;-83
2022/12/30 02:09:36;;;;;;;2.40;1.60;;;9.50;78.90;;;;;;5057497;28;20032;-82
2022/12/30 02:12:04;;;;;;;1.60;1.40;;;9.50;78.80;;;;;;5057302;28;20028;-83
2022/12/30 02:14:32;;;;;;;1.90;1.45;;;9.40;78.80;;;;;;5057957;28;20044;-84
2022/12/30 02:17:19;;;;;;;2.25;1.38;;;9.40;78.80;;;;;;5057845;28;20032;-84
2022/12/30 02:19:57;;;;;;;3.03;1.60;;;9.40;78.80;;;;;;5043495;28;20029;-83
2022/12/30 02:22:38;;;;;;;2.28;1.42;;;9.40;78.90;;;;;;5076794;28;20025;-83
2022/12/30 02:25:19;;;;;;;1.42;1.30;;;9.40;78.80;;;;;;5076190;28;20381;-83
2022/12/30 02:28:06;;;;;;;1.85;1.17;;;9.40;78.90;;;;;;5074196;28;20032;-83
2022/12/30 02:30:49;;;;;;;1.73;1.42;;;9.40;79.00;;;;;;5074127;28;20441;-83
2022/12/30 02:33:39;;;;;;;3.40;1.75;;;9.30;78.90;;;;;;5074394;28;20543;-83
2022/12/30 02:36:46;;;;;;;1.48;1.38;;;9.30;79.00;;;;;;5074766;28;20040;-83
2022/12/30 02:39:42;;;;;;;1.67;1.38;;;9.30;79.00;;;;;;5055948;28;20064;-83
2022/12/30 02:45:32;;;;;;;2.97;1.48;;;9.20;79.00;;;;;;5074218;28;20116;-83
2022/12/30 02:48:30;;;;;;;1.65;1.42;;;9.20;79.00;;;;;;5073360;28;20120;-84
2022/12/30 02:53:42;;;;;;;1.42;1.25;;;9.20;79.00;;;;;;5073951;28;20534;-83
2022/12/30 02:56:09;;;;;;;3.58;1.55;;;9.20;79.00;;;;;;5056612;28;20090;-83
2022/12/30 02:58:37;;;;;;;2.53;1.30;;;9.20;79.10;;;;;;5056328;28;20461;-83
2022/12/30 03:04:16;;;;;;;2.78;1.77;;;9.20;79.10;;;;;;5074348;28;20080;-83
2022/12/30 03:07:04;;;;;;;;;;;9.10;79.10;;;;;;5075044;28;20041;-83
2022/12/30 03:11:12;;;;;;;2.33;1.30;;;9.10;79.00;;;;;;5056316;28;19916;-83
2022/12/30 03:12:45;;;;;;;1.58;1.30;;;9.00;78.90;;;;;;5056665;28;20041;-83
2022/12/30 03:15:19;;;;;;;2.33;1.60;;;9.00;79.00;;;;;;5056459;28;20064;-83
2022/12/30 03:17:46;;;;;;;1.63;1.27;;;9.10;79.20;;;;;;5039284;28;20040;-83
2022/12/30 03:20:16;;;;;;;2.85;1.60;;;9.00;79.10;;;;;;5073224;28;20306;-84
2022/12/30 03:28:19;;;;;;;2.63;1.55;;;9.00;79.10;;;;;;5074273;28;20036;-83
2022/12/30 03:30:50;;;;;;;2.13;1.40;;;9.00;79.10;;;;;;5073206;28;20382;-83
2022/12/30 03:33:18;;;;;;;2.25;1.70;;;9.00;79.10;;;;;;5073000;28;20025;-83
2022/12/30 03:35:57;;;;;;;1.55;1.40;;;9.00;79.10;;;;;;5039777;28;20404;-83
2022/12/30 03:38:29;;;;;;;1.98;1.48;;;9.00;79.80;;;;;;5073605;28;20031;-83
2022/12/30 03:40:57;;;;;;;2.38;1.50;;;9.00;79.10;;;;;;5060488;28;20031;-83
2022/12/30 03:43:24;;;;;;;1.60;1.50;;;9.00;79.10;;;;;;5077292;28;20020;-82
2022/12/30 03:45:51;;;;;;;1.83;1.70;;;9.00;79.10;;;;;;5060176;28;20361;-82
2022/12/30 03:48:16;;;;;;;1.90;1.40;;;9.00;79.10;;;;;;5059737;28;20566;-83
2022/12/30 03:50:43;;;;;;;2.30;1.60;;;9.00;79.10;;;;;;5076618;28;20048;-83
2022/12/30 03:53:09;;;;;;;4.35;2.10;;;8.90;79.10;;;;;;5059627;28;20029;-84
2022/12/30 03:55:35;;;;;;;3.45;1.50;;;8.90;79.00;;;;;;5042990;28;20082;-83
2022/12/30 03:58:00;;;;;;;2.53;1.50;;;8.90;79.00;;;;;;5075850;28;20127;-83
2022/12/30 04:00:26;;;;;;;2.35;1.67;;;8.90;79.00;;;;;;5042888;28;20039;-83
2022/12/30 04:02:52;;;;;;;1.85;1.38;;;8.90;79.00;;;;;;5059371;28;20036;-83
2022/12/30 04:05:18;;;;;;;1.92;1.35;;;8.90;79.10;;;;;;5076023;28;20040;-83
2022/12/30 04:07:43;;;;;;;1.75;1.60;;;8.90;79.10;;;;;;5042783;28;20040;-83
2022/12/30 04:10:09;;;;;;;2.25;1.45;;;8.90;79.10;;;;;;5075944;28;20033;-83
2022/12/30 04:12:35;;;;;;;1.95;1.70;;;8.90;79.10;;;;;;5059714;28;20033;-83
2022/12/30 04:15:01;;;;;;;2.60;1.70;;;8.90;79.10;;;;;;5059942;28;20031;-83
2022/12/30 04:17:26;;;;;;;2.55;1.52;;;8.90;79.10;;;;;;5059190;28;20112;-83
2022/12/30 04:19:52;;;;;;;2.47;1.65;;;8.90;79.10;;;;;;5059356;28;20029;-83
2022/12/30 04:22:18;;;;;;;1.45;1.30;;;8.80;79.10;;;;;;5058932;28;20070;-81
2022/12/30 04:24:43;;;;;;;2.65;1.50;;;8.90;79.10;;;;;;5059215;28;20082;-83
2022/12/30 04:27:09;;;;;;;2.55;1.58;;;8.90;79.10;;;;;;5075808;28;20032;-83
2022/12/30 04:29:35;;;;;;;2.55;1.33;;;8.80;79.00;;;;;;5042477;28;20052;-83
2022/12/30 04:32:01;;;;;;;2.03;1.73;;;8.80;79.10;;;;;;5042511;28;20044;-83
2022/12/30 04:34:26;;;;;;;1.50;1.40;;;8.80;79.10;;;;;;5076164;28;20032;-82
2022/12/30 04:36:52;;;;;;;2.55;1.58;;;8.80;79.10;;;;;;5059693;28;20476;-84
2022/12/30 04:39:18;;;;;;;2.08;1.40;;;8.80;79.10;;;;;;5042251;28;20036;-83
2022/12/30 04:41:44;;;;;;;2.75;1.40;;;8.80;79.10;;;;;;5072382;28;20045;-82
2022/12/30 04:44:09;;;;;;;2.35;1.50;;;8.70;79.10;;;;;;5055497;28;20041;-84
2022/12/30 04:46:35;;;;;;;2.80;1.80;;;8.70;79.10;;;;;;5055158;28;20041;-82
2022/12/30 04:49:01;;;;;;;3.47;1.45;;;8.70;79.10;;;;;;5056455;28;20033;-83
2022/12/30 04:51:27;;;;;;;2.05;1.58;;;8.70;79.10;;;;;;5055306;28;20112;-83
2022/12/30 04:53:53;;;;;;;2.25;1.50;;;8.70;79.10;;;;;;5038639;28;20466;-83
2022/12/30 04:56:18;;;;;;;2.55;1.65;;;8.70;79.10;;;;;;5005771;28;20040;-83
2022/12/30 04:58:44;;;;;;;2.35;1.50;;;8.70;79.10;;;;;;5038430;28;20087;-83
2022/12/30 05:01:10;;;;;;;1.42;1.30;;;8.70;79.10;;;;;;5038708;28;20033;-83
2022/12/30 05:03:36;;;;;;;2.63;1.50;;;8.70;79.10;;;;;;5056029;28;20029;-82
2022/12/30 05:06:01;;;;;;;3.63;1.80;;;8.70;79.10;;;;;;5054766;28;20033;-83
2022/12/30 05:08:27;;;;;;;2.35;1.63;;;8.60;79.10;;;;;;5038543;28;20119;-83
2022/12/30 05:10:53;;;;;;;2.67;1.75;;;8.60;79.10;;;;;;5021999;28;20090;-83
2022/12/30 05:13:19;;;;;;;3.90;1.45;;;8.60;79.20;;;;;;5038625;28;20363;-83
2022/12/30 05:15:44;;;;;;;2.88;1.58;;;8.60;79.20;;;;;;5055641;28;20037;-84
2022/12/30 05:18:11;;;;;;;2.15;1.50;;;8.60;79.10;;;;;;5054610;28;20029;-83
2022/12/30 05:20:37;;;;;;;2.63;1.40;;;8.60;79.10;;;;;;5055730;28;20031;-84
2022/12/30 05:23:03;;;;;;;1.95;1.50;;;8.50;79.10;;;;;;5054897;28;20458;-83
2022/12/30 05:28:29;;;;;;;1.98;1.60;;;8.50;79.10;;;;;;4994274;28;20049;-83
2022/12/30 05:30:55;;;;;;;2.45;1.48;;;8.50;79.10;;;;;;5058359;28;20041;-83
2022/12/30 05:33:21;;;;;;;2.10;1.63;;;8.50;79.10;;;;;;5037862;28;20086;-84
2022/12/30 05:35:50;;;;;;;2.42;1.52;;;8.50;79.10;;;;;;5054378;28;20029;-83
2022/12/30 05:38:15;;;;;;;2.58;1.50;;;8.50;79.10;;;;;;5054091;28;20082;-83
2022/12/30 05:40:41;;;;;;;3.47;1.80;;;8.50;79.10;;;;;;5037664;28;20033;-83
2022/12/30 05:43:07;;;;;;;3.03;1.60;;;8.50;79.20;;;;;;5070309;28;20067;-83
2022/12/30 05:45:32;;;;;;;1.33;1.20;;;8.40;79.10;;;;;;5054210;28;20474;-82
2022/12/30 05:47:58;;;;;;;2.47;1.70;;;8.40;79.80;;;;;;5053877;28;20037;-83
2022/12/30 05:50:24;;;;;;;1.95;1.45;;;8.40;79.10;;;;;;5053815;28;20036;-83
2022/12/30 05:52:50;;;;;;;1.90;1.35;;;8.50;79.20;;;;;;5053821;28;20450;-83
2022/12/30 05:55:15;;;;;;;2.15;1.50;;;8.50;79.20;;;;;;5070335;28;20029;-83
2022/12/30 05:57:41;;;;;;;1.95;1.40;;;8.40;79.10;;;;;;5055308;28;20442;-80
2022/12/30 06:00:08;;;;;;;4.15;1.95;;;8.40;79.20;;;;;;5054536;28;20378;-83
2022/12/30 06:02:33;;;;;;;2.10;1.50;;;8.40;79.20;;;;;;5053415;28;20039;-83
2022/12/30 06:04:59;;;;;;;1.60;1.50;;;8.40;79.20;;;;;;5055415;28;20361;-83
2022/12/30 06:07:26;;;;;;;2.97;1.60;;;8.40;79.20;;;;;;5054443;28;20045;-82
2022/12/30 06:09:52;;;;;;;2.08;1.60;;;8.40;79.20;;;;;;5055038;28;20200;-83
2022/12/30 06:12:18;;;;;;;2.08;1.63;;;8.30;79.10;;;;;;5053620;28;20401;-83
2022/12/30 06:14:43;;;;;;;2.72;1.58;;;8.40;79.20;;;;;;5037322;28;20025;-83
2022/12/30 06:17:09;;;;;;;1.80;1.50;;;8.30;79.20;;;;;;5053762;28;20037;-83
2022/12/30 06:19:35;;;;;;;3.42;1.70;;;8.30;79.20;;;;;;5037267;28;20163;-83
2022/12/30 06:22:00;;;;;;;2.53;1.63;;;8.30;79.80;;;;;;5053959;28;20037;-83
2022/12/30 06:24:26;;;;;;;3.40;1.70;;;8.30;79.10;;;;;;5055104;28;20033;-83
2022/12/30 06:26:52;;;;;;;2.78;1.60;;;8.30;79.10;;;;;;5037243;28;20361;-82
2022/12/30 06:29:18;;;;;;;1.73;1.42;;;8.30;79.10;;;;;;5053658;28;20369;-83
2022/12/30 06:31:43;;;;;;;1.70;1.52;;;8.30;79.20;;;;;;5056186;28;20086;-83
2022/12/30 06:34:09;;;;;;;2.58;1.60;;;8.30;79.20;;;;;;5036664;28;20389;-83
2022/12/30 06:36:35;;;;;;;2.53;1.70;;;8.30;79.20;;;;;;5053855;28;20135;-82
2022/12/30 06:39:02;;;;;;;1.80;1.58;;;8.20;79.10;;;;;;5037115;28;20402;-83
2022/12/30 06:41:28;;;;;;;2.10;1.50;;;8.20;79.20;;;;;;5053568;28;20057;-83
2022/12/30 06:43:53;;;;;;;2.33;1.40;;;8.20;79.20;;;;;;5057095;28;20045;-83
2022/12/30 06:46:19;;;;;;;2.17;1.50;;;8.20;79.20;;;;;;5073008;28;20521;-83
2022/12/30 06:48:45;;;;;;;3.10;1.58;;;8.20;79.20;;;;;;5073548;28;20025;-83
2022/12/30 06:51:11;;;;;;;2.10;1.50;;;8.20;79.20;;;;;;5058795;28;20492;-84
2022/12/30 06:53:36;;;;;;;3.95;1.58;;;8.20;79.20;;;;;;5041751;28;20032;-83
2022/12/30 06:56:03;;;;;;;2.65;1.50;;;8.20;79.20;;;;;;5075220;28;20041;-83
2022/12/30 06:58:28;;;;;;;1.70;1.42;;;8.20;79.20;;;;;;5073936;28;20040;-83
2022/12/30 07:00:54;;;;;;;2.13;1.55;;;8.20;79.20;;;;;;5073429;28;20366;-83
2022/12/30 07:03:20;;;;;;;3.45;1.67;;;8.20;79.20;;;;;;5075445;28;20033;-85
2022/12/30 07:05:46;;;;;;;3.85;2.17;;;8.20;79.30;;;;;;5074190;28;20408;-85
2022/12/30 07:08:12;;;;;;;2.20;1.65;;;8.20;79.20;;;;;;5056569;28;20071;-83
2022/12/30 07:10:38;;;;;;;2.47;1.80;;;8.20;79.20;;;;;;5039647;28;20112;-84
2022/12/30 07:13:03;;;;;;;1.70;1.40;;;8.20;79.20;;;;;;5074566;28;20024;-83
2022/12/30 07:15:29;;;;;;;2.70;1.58;;;8.10;79.20;;;;;;5061464;28;20343;-84
2022/12/30 07:17:55;;;;;;;3.08;1.60;;;8.20;79.20;;;;;;5077042;28;20033;-83
2022/12/30 07:20:20;;;;;;;2.45;1.65;;;8.10;79.20;;;;;;5077318;28;20037;-84
2022/12/30 07:22:46;;;;;;;2.35;1.50;;;8.10;79.20;;;;;;5060966;28;20036;-84
2022/12/30 07:25:12;;;;;;;2.50;1.65;;;8.10;79.20;;;;;;5060405;28;20389;-84
2022/12/30 07:27:39;;;;;;;2.50;1.55;;;8.10;79.20;;;;;;5076722;28;20029;-84
2022/12/30 07:30:05;;;;;;;2.75;1.55;;;8.10;79.20;;;;;;5077899;28;20032;-84
2022/12/30 07:32:31;;;;;;;1.88;1.40;;;8.10;79.20;;;;;;5077464;28;20033;-84
2022/12/30 07:34:57;;;;;;;3.90;1.77;;;8.10;79.20;;;;;;5077169;28;20028;-83
2022/12/30 07:37:23;;;;;;;2.65;1.50;;;8.10;79.20;;;;;;5078447;28;20036;-83
2022/12/30 07:39:49;;;;;;;3.33;1.65;;;8.10;79.20;;;;;;5078576;28;20016;-83
2022/12/30 07:42:15;;;;;;;2.78;1.70;;;8.10;79.20;;;;;;5060285;28;20490;-83
2022/12/30 07:44:42;;;;;;;2.53;1.90;;;8.10;79.20;;;;;;5078948;28;20032;-83
2022/12/30 07:47:08;;;;;;;3.10;1.73;;;8.10;79.20;;;;;;5078100;28;20033;-84
2022/12/30 07:49:34;;;;;;;3.17;1.67;;;8.10;79.30;;;;;;5043602;28;20025;-84
2022/12/30 07:51:59;;;;;;;4.13;1.92;;;8.10;79.20;;;;;;5078226;28;20028;-84
2022/12/30 07:54:25;;;;;;;2.92;1.55;;;8.10;79.20;;;;;;5044128;28;20029;-83
2022/12/30 07:56:51;;;;;;;2.30;1.60;;;8.10;79.30;;;;;;5060491;28;20050;-83
2022/12/30 07:59:17;;;;;;;1.98;1.50;;;8.10;79.30;;;;;;5076800;28;20092;-83
2022/12/30 08:01:42;;;;;;;2.08;1.77;;;8.10;79.30;;;;;;5077416;28;20032;-83
2022/12/30 08:04:08;;;;;;;3.13;1.60;;;8.10;79.30;;;;;;5060794;28;20059;-82
2022/12/30 08:06:34;;;;;;;3.10;2.20;;;8.10;79.30;;;;;;5076816;28;20059;-83
2022/12/30 08:09:06;;;;;;;2.35;1.60;;;8.10;79.30;;;;;;5077467;28;20037;-82
2022/12/30 08:11:32;;;;;;;2.70;1.65;;;8.10;79.30;;;;;;5060707;28;20103;-84
2022/12/30 08:13:58;;;;;;;1.67;1.50;;;8.10;79.30;;;;;;5060513;28;20099;-82
2022/12/30 08:16:24;;;;;;;2.03;1.60;;;8.00;79.20;;;;;;5044181;28;20132;-83
2022/12/30 08:18:50;;;;;;;2.75;2.00;;;8.00;79.30;;;;;;5076655;28;20028;-84
2022/12/30 08:21:17;;;;;;;2.15;1.65;;;8.10;79.30;;;;;;5059995;28;20481;-82
2022/12/30 08:23:44;;;;;;;2.60;1.63;;;8.10;79.40;;;;;;5076831;28;20099;-82
2022/12/30 08:26:14;;;;;;;3.42;1.60;;;8.00;79.30;;;;;;5043051;28;20033;-82
2022/12/30 08:28:40;;;;;;;2.83;1.70;;;8.10;79.40;;;;;;5077837;28;20056;-82
2022/12/30 08:31:11;;;;;;;2.75;1.60;;;8.10;79.40;;;;;;5059924;28;20017;-83
2022/12/30 08:33:36;;;;;;;2.03;1.70;;;8.10;79.40;;;;;;5060294;28;20063;-82
2022/12/30 08:36:04;;;;;;;2.45;1.40;;;8.10;79.30;;;;;;5043396;28;20029;-82
2022/12/30 08:38:30;;;;;;;2.50;1.63;;;8.00;79.40;;;;;;5060121;28;20040;-84
2022/12/30 08:41:13;;;;;;;1.90;1.60;;;8.10;79.40;;;;;;5060108;28;20480;-81
2022/12/30 08:43:39;;;;;;;1.88;1.67;;;8.10;79.40;;;;;;5042978;28;20512;-81
2022/12/30 08:46:05;;;;;;;2.75;1.67;;;8.10;79.40;;;;;;5043759;28;20437;-82
2022/12/30 08:48:31;;;;;;;2.22;1.70;;;8.10;79.40;;;;;;5060612;28;20048;-81
2022/12/30 08:50:57;;;;;;;3.20;1.60;;;8.10;79.40;;;;;;5062876;28;20032;-82
2022/12/30 08:53:23;;;;;;;1.80;1.50;;;8.10;79.40;;;;;;5043187;28;20042;-82
2022/12/30 08:56:01;;;;;;;1.50;1.33;;;8.10;79.40;;;;;;5058991;28;20056;-82
2022/12/30 08:58:27;;;;;;;3.00;1.85;;;8.10;80.10;;;;;;5059652;28;20029;-83
2022/12/30 09:00:53;;;;;;;2.92;2.00;;;8.10;79.40;;;;;;5075582;28;20048;-83
2022/12/30 09:03:18;;;;;;;2.15;1.80;;;8.10;79.40;;;;;;5058836;28;20036;-81
2022/12/30 09:05:48;;;;;;;2.30;1.80;;;8.10;79.40;;;;;;5041791;28;20051;-81
2022/12/30 09:08:14;;;;;;;2.10;1.50;;;8.10;79.50;;;;;;5058522;28;20040;-82
2022/12/30 09:10:40;;;;;;;1.80;1.63;;;8.10;79.50;;;;;;5041627;28;20033;-82
2022/12/30 09:13:05;;;;;;;2.03;1.55;;;8.10;79.50;;;;;;5058261;28;20029;-82
2022/12/30 09:15:31;;;;;;;2.03;1.52;;;8.10;79.50;;;;;;5075206;28;20028;-82
2022/12/30 09:17:57;;;;;;;1.95;1.50;;;8.10;79.50;;;;;;5058439;28;20584;-81
2022/12/30 09:20:22;;;;;;;1.92;1.50;;;8.10;79.40;;;;;;5058953;28;20033;-83
2022/12/30 09:22:48;;;;;;;2.35;1.60;;;8.10;79.50;;;;;;5076073;28;20025;-82
2022/12/30 09:25:14;;;;;;;2.28;1.65;;;8.20;79.50;;;;;;5076478;28;20473;-82
2022/12/30 09:27:40;;;;;;;2.55;1.67;;;8.20;79.50;;;;;;5076474;28;20094;-82
2022/12/30 09:30:06;;;;;;;2.53;1.60;;;8.20;79.50;;;;;;5076221;28;20024;-82
2022/12/30 09:32:32;;;;;;;1.50;1.40;;;8.20;79.50;;;;;;5079317;28;20024;-82
2022/12/30 09:34:57;;;;;;;1.63;1.50;;;8.20;79.50;;;;;;5080853;28;20120;-81
2022/12/30 09:37:24;;;;;;;2.65;1.60;;;8.20;79.50;;;;;;5078525;28;20068;-80
2022/12/30 09:39:49;;;;;;;2.47;1.58;;;8.20;79.60;;;;;;5059803;28;20051;-81
2022/12/30 09:45:18;;;;;;;2.00;1.70;;;8.30;79.60;;;;;;5079377;28;20024;-81
2022/12/30 09:47:53;;;;;;;1.60;1.50;;;8.20;79.50;;;;;;5077278;28;20058;-81
2022/12/30 09:50:34;;;;;;;1.73;1.42;;;8.30;79.60;;;;;;5061223;28;20031;-81
2022/12/30 09:53:08;;;;;;;2.17;1.48;;;8.30;79.50;;;;;;5077976;28;20037;-80
2022/12/30 09:55:48;;;;;;;2.25;1.58;;;8.30;79.60;;;;;;5059196;28;20047;-82
2022/12/30 09:58:23;;;;;;;2.25;1.58;;;8.30;79.60;;;;;;5058331;28;20032;-81
2022/12/30 10:00:51;;;;;;;1.98;1.65;;;8.30;79.60;;;;;;5074443;28;20032;-81
2022/12/30 10:03:21;;;;;;;1.55;1.45;;;8.30;79.50;;;;;;5075520;28;20029;-80
2022/12/30 10:05:55;;;;;;;2.40;1.60;;;8.30;79.50;;;;;;5057246;28;20104;-81
2022/12/30 10:08:30;;;;;;;1.58;1.48;;;8.40;79.60;;;;;;5074673;28;20040;-81
2022/12/30 10:11:26;;;;;;;1.73;1.58;;;8.40;79.50;;;;;;5057427;28;20103;-80
2022/12/30 10:14:18;;;;;;;1.83;1.38;;;8.40;79.50;;;;;;5075115;28;20491;-80
2022/12/30 10:16:52;;;;;;;1.42;1.30;;;8.40;79.50;;;;;;5074407;28;20118;-81
2022/12/30 10:19:17;;;;;;;1.60;1.50;;;8.40;79.50;;;;;;5074403;28;20029;-81
2022/12/30 10:22:21;;;;;;;2.20;1.40;;;8.40;79.50;;;;;;5057363;28;20111;-81
2022/12/30 10:24:52;;;;;;;1.60;1.38;;;8.50;79.60;;;;;;5057797;28;20062;-80
2022/12/30 10:27:21;;;;;;;1.65;1.48;;;8.50;79.50;;;;;;5074479;28;20032;-81
2022/12/30 10:29:47;;;;;;;1.40;1.30;;;8.50;79.60;;;;;;5040163;28;20036;-80
2022/12/30 10:32:20;;;;;;;2.53;1.38;;;8.50;79.50;;;;;;5074084;28;20103;-81
2022/12/30 10:34:52;;;;;;;2.45;1.60;;;8.50;79.60;;;;;;5056650;28;20127;-80
2022/12/30 10:37:36;;;;;;;2.80;1.58;;;8.50;79.60;;;;;;5073292;28;20059;-81
2022/12/30 10:40:12;;;;;;;1.85;1.42;;;8.60;79.70;;;;;;5056276;28;20465;-80
2022/12/30 10:42:57;;;;;;;2.28;1.40;;;8.60;79.70;;;;;;5074203;28;20123;-81
2022/12/30 10:45:31;;;;;;;1.48;1.38;;;8.60;79.60;;;;;;5074220;28;20036;-81
2022/12/30 10:48:13;;;;;;;2.90;1.30;;;8.60;79.60;;;;;;5072845;28;20075;-81
2022/12/30 10:50:45;;;;;;;3.00;1.55;;;8.60;79.50;;;;;;5073912;28;20037;-82
2022/12/30 10:53:20;;;;;;;1.52;1.30;;;8.60;79.50;;;;;;5056688;28;20037;-82
2022/12/30 10:55:50;;;;;;;;;;;8.70;79.60;;;;;;5056829;28;20024;-82
2022/12/30 10:58:28;;;;;;;2.67;1.40;;;8.70;79.40;;;;;;5039711;28;20371;-83
2022/12/30 11:00:54;;;;;;;1.83;1.65;;;8.70;79.50;;;;;;5056561;28;20037;-81
2022/12/30 11:03:29;;;;;;;1.58;1.48;;;8.70;79.50;;;;;;5056263;28;20112;-80
2022/12/30 11:05:55;;;;;;;1.40;1.30;;;8.70;79.60;;;;;;5072935;28;20048;-82
2022/12/30 11:08:29;;;;;;;2.05;1.40;;;8.70;79.50;;;;;;5056076;28;20028;-81
2022/12/30 11:11:03;;;;;;;1.42;1.33;;;8.80;79.60;;;;;;5056236;28;20117;-83
2022/12/30 11:16:36;;;;;;;1.60;1.48;;;8.80;79.60;;;;;;5073640;28;20028;-85
2022/12/30 11:19:03;;;;;;;1.40;1.30;;;8.80;79.50;;;;;;5055206;28;20043;-83
2022/12/30 11:21:34;;;;;;;1.70;1.60;;;8.80;79.50;;;;;;5039212;28;20031;-82
2022/12/30 11:24:02;;;;;;;2.13;1.48;;;8.90;79.60;;;;;;5073694;28;20021;-81
2022/12/30 11:26:32;;;;;;;1.60;1.50;;;8.80;79.50;;;;;;5055491;28;20493;-80
2022/12/30 11:29:08;;;;;;;1.65;1.40;;;8.90;79.50;;;;;;5038491;28;20032;-80
2022/12/30 11:31:37;;;;;;;1.73;1.30;;;8.90;79.50;;;;;;5072471;28;20020;-79
2022/12/30 11:34:04;;;;;;;2.83;1.50;;;9.00;79.50;;;;;;5038589;28;20035;-79
2022/12/30 11:36:32;;;;;;;1.40;1.30;;;9.00;79.50;;;;;;5072071;28;20043;-80
2022/12/30 11:39:15;;;;;;;1.50;1.40;;;9.00;80.10;;;;;;5072311;28;20024;-80
2022/12/30 11:41:49;;;;;;;2.30;1.48;;;9.00;79.50;;;;;;5073994;28;20028;-80
2022/12/30 11:44:23;;;;;;;2.83;1.80;;;9.00;79.50;;;;;;5055832;28;20053;-80
2022/12/30 11:46:52;;;;;;;1.80;1.50;;;9.00;79.40;;;;;;5073046;28;20033;-81
2022/12/30 11:49:32;;;;;;;2.13;1.45;;;9.10;79.40;;;;;;5055725;28;20021;-81
2022/12/30 11:52:11;;;;;;;2.22;1.60;;;9.10;79.50;;;;;;5056298;28;20025;-80
2022/12/30 11:54:50;;;;;;;2.28;1.50;;;9.10;79.40;;;;;;5073843;28;20029;-81
2022/12/30 11:57:27;;;;;;;1.63;1.30;;;9.10;79.30;;;;;;5073984;28;20033;-81
2022/12/30 11:59:56;;;;;;;3.05;1.40;;;9.10;79.30;;;;;;5073291;28;20039;-81
2022/12/30 12:02:33;;;;;;;2.50;1.50;;;9.20;79.30;;;;;;5076964;28;20036;-81
2022/12/30 12:05:00;;;;;;;1.58;1.38;;;9.20;79.30;;;;;;5059213;28;20025;-82
2022/12/30 12:07:32;;;;;;;3.35;1.50;;;9.20;79.30;;;;;;5059642;28;20041;-80
2022/12/30 12:10:02;;;;;;;1.50;1.40;;;9.20;79.30;;;;;;5059507;28;20031;-80
2022/12/30 12:12:42;;;;;;;1.88;1.50;;;9.20;79.20;;;;;;5059093;28;20033;-80
2022/12/30 12:15:24;;;;;;;1.60;1.33;;;9.30;79.30;;;;;;5059426;28;20048;-81
2022/12/30 12:18:15;;;;;;;2.05;1.40;;;9.30;79.30;;;;;;5059186;28;20032;-81
2022/12/30 12:21:25;;;;;;;1.40;1.30;;;9.30;79.30;;;;;;5042347;28;20033;-82
2022/12/30 12:23:58;;;;;;;1.60;1.45;;;9.30;79.40;;;;;;5014769;28;20038;-82
2022/12/30 12:26:38;;;;;;;1.40;1.30;;;9.30;79.30;;;;;;5070162;28;20115;-82
2022/12/30 12:29:04;;;;;;;1.60;1.50;;;9.30;79.30;;;;;;5058852;28;20040;-80
2022/12/30 12:31:48;;;;;;;1.73;1.30;;;9.30;79.30;;;;;;5042045;28;20024;-81
2022/12/30 12:34:26;;;;;;;1.65;1.50;;;9.40;79.40;;;;;;5059063;28;20350;-81
2022/12/30 12:37:28;;;;;;;1.55;1.30;;;9.40;79.40;;;;;;5059029;28;20059;-81
2022/12/30 12:40:26;;;;;;;1.60;1.50;;;9.40;79.40;;;;;;5059121;28;20029;-81
2022/12/30 12:43:03;;;;;;;1.85;1.23;;;9.40;79.30;;;;;;5050159;28;20485;-81
2022/12/30 12:45:47;;;;;;;2.05;1.42;;;9.40;79.40;;;;;;5075570;28;20028;-81
2022/12/30 12:48:51;;;;;;;1.40;1.30;;;9.40;79.30;;;;;;5058378;28;20453;-80
2022/12/30 12:51:35;;;;;;;1.38;1.25;;;9.40;79.40;;;;;;5047028;28;20510;-82
2022/12/30 12:54:29;;;;;;;1.95;1.40;;;9.40;79.30;;;;;;5058813;28;20028;-80
2022/12/30 12:57:20;;;;;;;2.05;1.65;;;9.50;79.40;;;;;;5058424;28;20035;-83
2022/12/30 13:00:07;;;;;;;1.40;1.30;;;9.50;79.30;;;;;;5075816;28;20036;-80
2022/12/30 13:02:35;;;;;;;1.85;1.42;;;9.50;79.30;;;;;;5041586;28;20085;-80
2022/12/30 13:05:07;;;;;;;2.47;1.40;;;9.40;79.20;;;;;;5075683;28;20028;-81
2022/12/30 13:07:39;;;;;;;3.50;1.42;;;9.50;79.30;;;;;;5075441;28;20040;-81
2022/12/30 13:10:10;;;;;;;2.33;1.63;;;9.50;79.30;;;;;;5075605;28;20025;-81
2022/12/30 13:12:45;;;;;;;1.40;1.30;;;9.50;79.20;;;;;;5056520;28;20482;-82
2022/12/30 13:15:26;;;;;;;;;;;9.60;79.30;;;;;;5074976;28;20528;-83
2022/12/30 13:17:56;;;;;;;3.13;1.35;;;9.60;79.10;;;;;;5075495;28;19954;-81
2022/12/30 13:20:41;;;;;;;1.40;1.30;;;9.60;79.00;;;;;;5057821;28;20025;-79
2022/12/30 13:23:11;;;;;;;3.00;1.60;;;9.60;79.10;;;;;;5057438;28;20016;-84
2022/12/30 13:25:53;;;;;;;2.50;1.52;;;9.60;79.10;;;;;;5075397;28;20032;-82
2022/12/30 13:28:25;;;;;;;2.65;1.60;;;9.60;79.20;;;;;;5074352;28;20036;-81
2022/12/30 13:31:22;;;;;;;2.10;1.35;;;9.70;79.20;;;;;;5074382;28;20036;-81
2022/12/30 13:34:12;;;;;;;2.28;1.45;;;9.70;79.20;;;;;;5056693;28;20037;-80
2022/12/30 13:36:56;;;;;;;2.25;1.58;;;9.70;79.20;;;;;;5074713;28;20039;-80
2022/12/30 13:39:45;;;;;;;1.42;1.33;;;9.70;79.20;;;;;;5074374;28;20092;-80
2022/12/30 13:42:13;;;;;;;2.45;1.60;;;9.70;79.20;;;;;;5073352;28;20114;-81
2022/12/30 13:44:44;;;;;;;1.27;1.13;;;9.70;79.10;;;;;;5073846;28;20028;-81
2022/12/30 13:47:32;;;;;;;1.77;1.50;;;9.70;79.20;;;;;;5057022;28;20048;-81
2022/12/30 13:49:59;;;;;;;2.50;1.40;;;9.80;79.20;;;;;;5057081;28;20082;-82
2022/12/30 13:52:27;;;;;;;1.70;1.35;;;9.80;79.20;;;;;;5073976;28;20016;-80
2022/12/30 13:54:56;;;;;;;2.45;1.48;;;9.80;79.20;;;;;;5056130;28;20038;-80
2022/12/30 13:57:30;;;;;;;2.63;1.50;;;9.80;79.20;;;;;;5074127;28;20373;-81
2022/12/30 14:00:14;;;;;;;2.45;1.50;;;9.80;79.20;;;;;;5056258;28;20040;-81
2022/12/30 14:03:02;;;;;;;1.88;1.38;;;9.90;79.20;;;;;;5073809;28;20050;-79
2022/12/30 14:05:37;;;;;;;3.30;1.40;;;9.90;79.20;;;;;;5073827;28;20040;-79
2022/12/30 14:08:26;;;;;;;1.92;1.70;;;9.90;79.20;;;;;;5074203;28;20075;-81
2022/12/30 14:11:01;;;;;;;1.70;1.45;;;9.90;79.30;;;;;;5047218;28;20040;-79
2022/12/30 14:13:26;;;;;;;1.73;1.52;;;9.90;79.20;;;;;;5074001;28;20021;-80